createdAt,value
2022-08-09T00:00:00.620Z,76.10
2022-08-09T00:02:37.173Z,76.60
2022-08-09T00:06:19.549Z,76.10
2022-08-09T00:08:01.290Z,77.50
2022-08-09T00:10:28.498Z,76.50
2022-08-09T00:12:56.036Z,77.30
2022-08-09T00:15:26.715Z,77.00
2022-08-09T00:18:17.521Z,78.10
2022-08-09T00:20:50.063Z,76.90
2022-08-09T00:23:56.505Z,77.40
2022-08-09T00:26:07.062Z,77.90
2022-08-09T00:28:34.986Z,78.60
2022-08-09T00:31:30.609Z,77.50
2022-08-09T00:33:50.796Z,77.90
2022-08-09T00:36:19.366Z,77.60
2022-08-09T00:38:50.768Z,77.40
2022-08-09T00:44:18.856Z,78.10
2022-08-09T00:44:24.900Z,78.60
2022-08-09T00:46:56.494Z,77.50
2022-08-09T00:49:30.346Z,78.80
2022-08-09T00:52:17.352Z,79.60
2022-08-09T00:54:55.010Z,78.90
2022-08-09T00:57:33.704Z,80.30
2022-08-09T01:00:20.728Z,79.20
2022-08-09T01:02:51.053Z,80.20
2022-08-09T01:05:51.814Z,80.40
2022-08-09T01:08:29.478Z,80.10
2022-08-09T01:11:09.765Z,79.20
2022-08-09T01:14:00.359Z,80.20
2022-08-09T01:16:32.525Z,80.90
2022-08-09T01:19:04.527Z,81.20
2022-08-09T01:21:44.686Z,81.00
2022-08-09T01:24:27.100Z,80.10
2022-08-09T01:27:02.107Z,80.40
2022-08-09T01:29:41.312Z,80.10
2022-08-09T01:32:32.281Z,80.70
2022-08-09T01:35:07.027Z,81.50
2022-08-09T01:38:07.949Z,81.10
2022-08-09T01:40:33.966Z,81.40
2022-08-09T01:43:03.353Z,81.90
2022-08-09T01:45:30.479Z,81.30
2022-08-09T01:47:58.766Z,81.20
2022-08-09T01:50:37.021Z,81.00
2022-08-09T01:53:19.931Z,81.00
2022-08-09T01:55:50.308Z,81.50
2022-08-09T01:58:24.341Z,80.60
2022-08-09T02:00:52.456Z,81.80
2022-08-09T02:03:21.745Z,81.30
2022-08-09T02:06:06.593Z,82.60
2022-08-09T02:08:57.289Z,82.10
2022-08-09T02:11:42.579Z,82.60
2022-08-09T02:14:15.069Z,82.30
2022-08-09T02:16:59.537Z,82.40
2022-08-09T02:19:43.451Z,82.80
2022-08-09T02:22:37.975Z,82.60
2022-08-09T02:25:15.342Z,83.00
2022-08-09T02:28:00.116Z,82.30
2022-08-09T02:30:41.492Z,83.20
2022-08-09T02:33:14.155Z,83.20
2022-08-09T02:36:01.342Z,83.20
2022-08-09T02:38:32.496Z,83.20
2022-08-09T02:41:13.492Z,83.90
2022-08-09T02:43:54.710Z,83.70
2022-08-09T02:46:27.418Z,83.30
2022-08-09T02:49:00.405Z,83.30
2022-08-09T02:51:28.100Z,82.60
2022-08-09T02:54:05.125Z,82.70
2022-08-09T02:56:33.926Z,83.30
2022-08-09T02:59:05.135Z,83.00
2022-08-09T03:01:42.796Z,83.60
2022-08-09T03:04:26.276Z,84.20
2022-08-09T03:06:57.214Z,83.20
2022-08-09T03:09:33.581Z,83.00
2022-08-09T03:12:06.598Z,84.90
2022-08-09T03:14:40.788Z,84.50
2022-08-09T03:17:08.574Z,83.60
2022-08-09T03:19:58.201Z,83.60
2022-08-09T03:22:32.039Z,83.90
2022-08-09T03:25:06.130Z,83.40
2022-08-09T03:27:52.135Z,84.60
2022-08-09T03:30:29.638Z,83.90
2022-08-09T03:33:12.783Z,83.80
2022-08-09T03:36:12.760Z,84.60
2022-08-09T03:41:45.968Z,84.40
2022-08-09T03:44:16.044Z,83.90
2022-08-09T03:46:46.399Z,85.90
2022-08-09T03:49:17.397Z,85.20
2022-08-09T03:51:57.565Z,85.30
2022-08-09T03:54:38.573Z,85.40
2022-08-09T03:57:18.667Z,85.20
2022-08-09T03:59:54.751Z,86.00
2022-08-09T04:02:30.577Z,86.50
2022-08-09T04:05:00.734Z,86.30
2022-08-09T04:07:47.056Z,85.90
2022-08-09T04:10:18.409Z,86.00
2022-08-09T04:13:04.228Z,86.00
2022-08-09T04:18:27.168Z,86.50
2022-08-09T04:21:04.078Z,86.10
2022-08-09T04:23:57.675Z,86.20
2022-08-09T04:29:30.570Z,86.90
2022-08-09T04:32:23.567Z,86.40
2022-08-09T04:35:08.547Z,87.00
2022-08-09T04:37:45.239Z,86.40
2022-08-09T04:40:19.024Z,87.20
2022-08-09T04:42:48.502Z,86.20
2022-08-09T04:45:20.633Z,86.50
2022-08-09T04:48:01.085Z,86.40
2022-08-09T04:50:33.701Z,86.40
2022-08-09T04:53:02.081Z,86.10
2022-08-09T04:55:39.726Z,86.10
2022-08-09T04:58:21.281Z,86.30
2022-08-09T05:00:50.944Z,86.50
2022-08-09T05:03:40.344Z,85.30
2022-08-09T05:06:08.937Z,85.80
2022-08-09T05:12:03.601Z,85.30
2022-08-09T05:14:31.763Z,85.40
2022-08-09T05:17:02.453Z,85.10
2022-08-09T05:19:46.166Z,85.30
2022-08-09T05:22:35.998Z,85.30
2022-08-09T05:25:03.278Z,85.10
2022-08-09T05:27:31.033Z,85.10
2022-08-09T05:29:59.053Z,85.10
2022-08-09T05:32:30.081Z,85.30
2022-08-09T05:34:59.348Z,85.40
2022-08-09T05:37:28.846Z,85.60
2022-08-09T05:40:13.331Z,85.20
2022-08-09T05:43:17.145Z,83.00
2022-08-09T05:46:10.339Z,80.70
2022-08-09T05:48:38.249Z,78.40
2022-08-09T05:53:57.956Z,73.60
2022-08-09T05:56:26.185Z,71.10
2022-08-09T05:59:02.056Z,66.10
2022-08-09T06:02:04.645Z,63.90
2022-08-09T06:04:44.731Z,62.90
2022-08-09T06:07:21.644Z,59.40
2022-08-09T06:10:01.940Z,59.10
2022-08-09T06:15:43.191Z,59.80
2022-08-09T06:18:15.738Z,59.70
2022-08-09T06:20:49.820Z,59.80
2022-08-09T06:24:12.507Z,58.60
2022-08-09T06:26:52.601Z,58.20
2022-08-09T06:29:21.590Z,57.70
2022-08-09T06:32:08.665Z,57.30
2022-08-09T06:34:40.817Z,58.20
2022-08-09T06:37:22.123Z,58.60
2022-08-09T06:40:24.847Z,58.40
2022-08-09T06:43:04.053Z,58.20
2022-08-09T06:46:07.003Z,59.50
2022-08-09T06:49:00.280Z,59.20
2022-08-09T06:51:28.261Z,58.10
2022-08-09T06:53:55.346Z,58.00
2022-08-09T06:56:31.050Z,57.40
2022-08-09T07:00:50.844Z,57.30
2022-08-09T07:01:57.961Z,57.20
2022-08-09T07:04:30.668Z,56.00
2022-08-09T07:07:12.210Z,55.10
2022-08-09T07:10:14.305Z,54.80
2022-08-09T07:13:28.320Z,55.70
2022-08-09T07:16:41.951Z,54.80
2022-08-09T07:18:44.279Z,55.70
2022-08-09T07:21:14.453Z,53.80
2022-08-09T07:23:46.727Z,54.50
2022-08-09T07:26:24.839Z,53.60
2022-08-09T07:29:08.967Z,53.40
2022-08-09T07:31:45.343Z,52.30
2022-08-09T07:34:19.517Z,52.50
2022-08-09T07:36:50.968Z,54.70
2022-08-09T07:39:40.768Z,52.30
2022-08-09T07:42:08.417Z,52.60
2022-08-09T07:44:51.798Z,51.70
2022-08-09T07:50:34.636Z,51.20
2022-08-09T07:53:05.194Z,52.50
2022-08-09T07:55:41.433Z,50.00
2022-08-09T07:58:26.014Z,49.70
2022-08-09T08:00:58.640Z,49.80
2022-08-09T08:03:26.804Z,49.00
2022-08-09T08:05:57.781Z,50.40
2022-08-09T08:09:01.538Z,47.60
2022-08-09T08:12:11.149Z,47.00
2022-08-09T08:14:04.749Z,47.10
2022-08-09T08:16:34.555Z,45.50
2022-08-09T08:19:03.190Z,46.90
2022-08-09T08:21:34.596Z,46.60
2022-08-09T08:24:12.219Z,45.30
2022-08-09T08:26:55.919Z,46.10
2022-08-09T08:29:28.030Z,46.90
2022-08-09T08:32:03.183Z,45.10
2022-08-09T08:34:34.549Z,45.10
2022-08-09T08:37:02.799Z,45.90
2022-08-09T08:39:39.674Z,45.00
2022-08-09T08:42:11.160Z,45.00
2022-08-09T08:44:39.449Z,45.70
2022-08-09T08:47:12.959Z,45.00
2022-08-09T08:49:48.272Z,44.50
2022-08-09T08:52:48.540Z,43.40
2022-08-09T08:55:05.934Z,42.10
2022-08-09T08:57:35.505Z,43.50
2022-08-09T09:00:12.712Z,43.00
2022-08-09T09:02:49.960Z,42.60
2022-08-09T09:05:22.171Z,41.60
2022-08-09T09:08:02.514Z,41.80
2022-08-09T09:10:29.680Z,42.60
2022-08-09T09:12:57.605Z,42.70
2022-08-09T09:15:27.926Z,41.20
2022-08-09T09:17:55.810Z,40.80
2022-08-09T09:20:22.605Z,40.80
2022-08-09T09:22:57.314Z,39.90
2022-08-09T09:26:03.880Z,40.60
2022-08-09T09:29:01.670Z,39.40
2022-08-09T09:31:17.627Z,40.80
2022-08-09T09:34:14.468Z,39.50
2022-08-09T09:36:52.777Z,40.50
2022-08-09T09:39:22.921Z,41.20
2022-08-09T09:41:50.937Z,38.90
2022-08-09T09:44:27.916Z,39.10
2022-08-09T09:47:06.574Z,40.10
2022-08-09T09:50:13.492Z,37.30
2022-08-09T09:52:36.904Z,38.80
2022-08-09T09:55:24.137Z,36.40
2022-08-09T09:58:12.497Z,37.60
2022-08-09T10:00:52.671Z,39.20
2022-08-09T10:03:43.116Z,36.90
2022-08-09T10:06:12.438Z,36.80
2022-08-09T10:08:43.164Z,35.10
2022-08-09T10:11:59.919Z,35.20
2022-08-09T10:14:27.338Z,35.20
2022-08-09T10:17:11.421Z,35.30
2022-08-09T10:19:42.090Z,35.40
2022-08-09T10:22:12.938Z,37.00
2022-08-09T10:24:41.123Z,35.90
2022-08-09T10:27:17.303Z,36.00
2022-08-09T10:30:41.952Z,34.50
2022-08-09T10:32:42.532Z,34.90
2022-08-09T10:35:10.274Z,34.60
2022-08-09T10:37:38.333Z,35.50
2022-08-09T10:40:12.136Z,36.40
2022-08-09T10:42:56.011Z,34.30
2022-08-09T10:45:23.350Z,35.20
2022-08-09T10:48:16.477Z,34.50
2022-08-09T10:51:13.611Z,34.20
2022-08-09T10:54:04.642Z,34.40
2022-08-09T10:56:33.807Z,36.10
2022-08-09T10:59:23.296Z,34.00
2022-08-09T11:03:11.612Z,33.50
2022-08-09T11:05:05.212Z,34.60
2022-08-09T11:07:56.656Z,34.50
2022-08-09T11:10:53.271Z,33.80
2022-08-09T11:13:50.874Z,35.00
2022-08-09T11:16:35.056Z,34.40
2022-08-09T11:19:07.832Z,32.30
2022-08-09T11:21:56.826Z,34.80
2022-08-09T11:24:25.463Z,35.00
2022-08-09T11:26:56.992Z,34.40
2022-08-09T11:30:01.131Z,32.60
2022-08-09T11:32:48.212Z,33.60
2022-08-09T11:35:50.366Z,32.60
2022-08-09T11:38:32.018Z,32.40
2022-08-09T11:41:13.859Z,32.50
2022-08-09T11:43:46.498Z,33.60
2022-08-09T11:46:26.714Z,32.10
2022-08-09T11:49:00.457Z,33.80
2022-08-09T11:53:00.678Z,33.10
2022-08-09T11:54:27.990Z,33.70
2022-08-09T11:57:15.617Z,32.50
2022-08-09T11:59:42.670Z,34.40
2022-08-09T12:02:37.584Z,32.80
2022-08-09T12:05:06.902Z,33.60
2022-08-09T12:07:45.056Z,33.70
2022-08-09T12:10:38.114Z,32.40
2022-08-09T12:14:06.410Z,32.50
2022-08-09T12:15:48.801Z,32.00
2022-08-09T12:18:29.634Z,32.60
2022-08-09T12:20:59.160Z,32.60
2022-08-09T12:24:00.424Z,31.40
2022-08-09T12:26:25.363Z,31.40
2022-08-09T12:29:11.997Z,31.30
2022-08-09T12:32:02.747Z,31.00
2022-08-09T12:34:46.742Z,31.30
2022-08-09T12:37:23.393Z,32.20
2022-08-09T12:40:02.444Z,33.70
2022-08-09T12:42:30.187Z,34.20
2022-08-09T12:44:57.674Z,32.60
2022-08-09T12:47:26.371Z,32.30
2022-08-09T12:50:13.294Z,32.30
2022-08-09T12:52:58.357Z,31.50
2022-08-09T12:56:16.041Z,33.80
2022-08-09T12:58:28.024Z,32.50
2022-08-09T13:00:55.428Z,32.80
2022-08-09T13:03:53.620Z,32.30
2022-08-09T13:06:34.410Z,31.30
2022-08-09T13:09:02.606Z,30.50
2022-08-09T13:11:34.372Z,30.80
2022-08-09T13:14:43.785Z,31.00
2022-08-09T13:16:52.796Z,31.30
2022-08-09T13:20:09.306Z,31.00
2022-08-09T13:22:36.907Z,30.90
2022-08-09T13:25:14.344Z,32.00
2022-08-09T13:27:55.000Z,31.40
2022-08-09T13:30:49.208Z,32.20
2022-08-09T13:33:17.308Z,31.90
2022-08-09T13:36:24.500Z,32.10
2022-08-09T13:38:57.811Z,31.10
2022-08-09T13:41:57.234Z,31.50
2022-08-09T13:44:09.131Z,32.30
2022-08-09T13:47:15.930Z,32.80
2022-08-09T13:49:33.983Z,32.50
2022-08-09T13:52:07.975Z,32.40
2022-08-09T13:54:59.380Z,32.20
2022-08-09T13:57:35.746Z,32.00
2022-08-09T14:00:08.350Z,31.70
2022-08-09T14:02:42.906Z,33.00
2022-08-09T14:05:59.584Z,32.50
2022-08-09T14:08:17.422Z,32.20
2022-08-09T14:10:54.081Z,33.20
2022-08-09T14:14:16.511Z,33.90
2022-08-09T14:16:18.332Z,33.90
2022-08-09T14:18:50.368Z,34.30
2022-08-09T14:21:22.633Z,33.20
2022-08-09T14:23:55.455Z,33.10
2022-08-09T14:26:32.127Z,32.90
2022-08-09T14:29:02.677Z,33.80
2022-08-09T14:31:36.354Z,33.30
2022-08-09T14:34:30.948Z,32.80
2022-08-09T14:37:00.986Z,33.60
2022-08-09T14:39:45.469Z,33.90
2022-08-09T14:42:28.783Z,33.10
2022-08-09T14:45:01.611Z,33.20
2022-08-09T14:47:57.561Z,33.80
2022-08-09T14:50:30.473Z,33.40
2022-08-09T14:52:58.190Z,34.20
2022-08-09T14:58:06.066Z,34.30
2022-08-09T15:00:36.139Z,34.50
2022-08-09T15:03:04.227Z,34.60
2022-08-09T15:05:33.173Z,34.80
2022-08-09T15:08:02.133Z,34.50
2022-08-09T15:10:31.744Z,34.70
2022-08-09T15:12:59.266Z,34.80
2022-08-09T15:15:28.800Z,35.20
2022-08-09T15:17:55.924Z,34.60
2022-08-09T15:21:58.254Z,34.40
2022-08-09T15:24:03.297Z,34.40
2022-08-09T15:25:58.774Z,33.80
2022-08-09T15:28:33.045Z,35.10
2022-08-09T15:31:28.634Z,34.20
2022-08-09T15:34:33.611Z,34.40
2022-08-09T15:36:56.428Z,34.70
2022-08-09T15:39:25.151Z,34.00
2022-08-09T15:42:02.254Z,34.50
2022-08-09T15:44:32.755Z,34.60
2022-08-09T15:47:00.955Z,34.60
2022-08-09T15:49:30.249Z,35.00
2022-08-09T15:52:05.180Z,36.10
2022-08-09T15:54:46.111Z,35.30
2022-08-09T15:57:35.698Z,35.00
2022-08-09T16:00:17.087Z,35.10
2022-08-09T16:02:54.550Z,35.70
2022-08-09T16:05:22.503Z,35.50
2022-08-09T16:07:50.506Z,36.10
2022-08-09T16:10:55.136Z,35.50
2022-08-09T16:13:05.380Z,36.20
2022-08-09T16:16:10.307Z,35.80
2022-08-09T16:18:34.376Z,35.50
2022-08-09T16:21:01.138Z,35.40
2022-08-09T16:23:27.864Z,35.60
2022-08-09T16:26:00.920Z,35.70
2022-08-09T16:28:29.868Z,35.50
2022-08-09T16:30:58.929Z,35.50
2022-08-09T16:33:27.633Z,36.10
2022-08-09T16:36:08.316Z,36.70
2022-08-09T16:38:38.824Z,36.30
2022-08-09T16:41:06.395Z,35.70
2022-08-09T16:43:40.511Z,35.20
2022-08-09T16:46:08.360Z,35.80
2022-08-09T16:48:53.083Z,35.20
2022-08-09T16:51:26.274Z,34.90
2022-08-09T16:56:49.006Z,35.50
2022-08-09T16:59:16.424Z,35.60
2022-08-09T17:01:51.165Z,35.50
2022-08-09T17:04:28.363Z,35.80
2022-08-09T17:08:41.174Z,35.80
2022-08-09T17:09:45.193Z,36.80
2022-08-09T17:12:13.369Z,35.80
2022-08-09T17:14:46.418Z,36.00
2022-08-09T17:17:26.965Z,35.60
2022-08-09T17:20:32.295Z,35.30
2022-08-09T17:22:49.995Z,35.90
2022-08-09T17:25:18.975Z,36.00
2022-08-09T17:27:49.421Z,36.40
2022-08-09T17:30:22.198Z,36.20
2022-08-09T17:32:52.953Z,36.20
2022-08-09T17:35:19.971Z,36.40
2022-08-09T17:38:14.487Z,36.80
2022-08-09T17:40:35.116Z,37.00
2022-08-09T17:43:32.442Z,37.00
2022-08-09T17:46:03.287Z,37.20
2022-08-09T17:48:31.606Z,37.30
2022-08-09T17:50:59.536Z,37.50
2022-08-09T17:53:43.067Z,37.50
2022-08-09T17:56:11.058Z,37.80
2022-08-09T17:58:38.035Z,39.00
2022-08-09T18:01:09.640Z,39.20
2022-08-09T18:03:44.738Z,38.40
2022-08-09T18:06:14.876Z,38.50
2022-08-09T18:08:58.956Z,38.50
2022-08-09T18:11:25.877Z,38.30
2022-08-09T18:13:58.967Z,39.10
2022-08-09T18:16:32.535Z,39.60
2022-08-09T18:19:04.247Z,39.10
2022-08-09T18:21:47.069Z,40.30
2022-08-09T18:24:17.276Z,40.50
2022-08-09T18:26:45.971Z,40.00
2022-08-09T18:30:41.930Z,40.90
2022-08-09T18:32:03.058Z,42.10
2022-08-09T18:34:31.875Z,41.50
2022-08-09T18:36:58.750Z,41.70
2022-08-09T18:39:32.095Z,41.90
2022-08-09T18:42:01.142Z,42.70
2022-08-09T18:44:31.749Z,43.30
2022-08-09T18:47:04.249Z,42.70
2022-08-09T18:49:43.075Z,43.20
2022-08-09T18:52:15.924Z,43.50
2022-08-09T18:54:49.528Z,44.90
2022-08-09T18:57:22.751Z,45.20
2022-08-09T19:00:01.680Z,45.60
2022-08-09T19:02:32.675Z,45.00
2022-08-09T19:05:19.747Z,45.50
2022-08-09T19:08:03.771Z,46.10
2022-08-09T19:10:39.321Z,46.50
2022-08-09T19:13:22.810Z,46.80
2022-08-09T19:16:00.482Z,47.20
2022-08-09T19:18:35.237Z,47.40
2022-08-09T19:21:09.153Z,50.70
2022-08-09T19:24:35.953Z,48.80
2022-08-09T19:26:31.891Z,48.50
2022-08-09T19:29:01.977Z,48.70
2022-08-09T19:31:30.435Z,48.90
2022-08-09T19:33:59.684Z,49.20
2022-08-09T19:36:30.775Z,49.90
2022-08-09T19:39:01.148Z,50.20
2022-08-09T19:41:33.237Z,50.10
2022-08-09T19:44:03.431Z,50.30
2022-08-09T19:46:35.875Z,51.60
2022-08-09T19:50:07.382Z,51.40
2022-08-09T19:52:03.996Z,52.00
2022-08-09T19:54:31.178Z,51.60
2022-08-09T19:56:59.064Z,51.60
2022-08-09T19:59:58.619Z,52.20
2022-08-09T20:04:18.609Z,52.50
2022-08-09T20:05:10.341Z,54.10
2022-08-09T20:07:59.760Z,56.40
2022-08-09T20:10:34.580Z,55.20
2022-08-09T20:13:05.368Z,56.70
2022-08-09T20:16:35.232Z,56.30
2022-08-09T20:18:20.285Z,56.90
2022-08-09T20:20:51.459Z,58.80
2022-08-09T20:23:23.034Z,58.60
2022-08-09T20:25:52.234Z,59.70
2022-08-09T20:28:34.159Z,59.10
2022-08-09T20:31:04.730Z,58.90
2022-08-09T20:33:39.266Z,59.10
2022-08-09T20:36:11.275Z,59.40
2022-08-09T20:39:18.793Z,61.20
2022-08-09T20:41:32.262Z,61.10
2022-08-09T20:44:03.618Z,62.50
2022-08-09T20:46:42.065Z,60.90
2022-08-09T20:49:11.450Z,61.30
2022-08-09T20:51:41.164Z,60.80
2022-08-09T20:54:12.469Z,63.20
2022-08-09T20:56:53.683Z,62.60
2022-08-09T20:59:24.822Z,62.30
2022-08-09T21:01:53.467Z,63.80
2022-08-09T21:05:51.486Z,62.40
2022-08-09T21:07:14.223Z,62.10
2022-08-09T21:09:45.957Z,63.00
2022-08-09T21:15:13.340Z,64.00
2022-08-09T21:18:20.976Z,64.20
2022-08-09T21:20:31.934Z,65.00
2022-08-09T21:23:01.779Z,65.70
2022-08-09T21:25:56.413Z,64.50
2022-08-09T21:28:34.143Z,65.10
2022-08-09T21:31:17.668Z,66.00
2022-08-09T21:33:51.216Z,65.00
2022-08-09T21:36:27.809Z,64.90
2022-08-09T21:38:57.675Z,66.10
2022-08-09T21:42:04.222Z,65.30
2022-08-09T21:44:33.048Z,65.70
2022-08-09T21:47:02.713Z,67.10
2022-08-09T21:49:39.745Z,66.30
2022-08-09T21:52:15.100Z,66.20
2022-08-09T21:54:51.043Z,67.20
2022-08-09T21:57:38.551Z,67.00
2022-08-09T22:00:25.899Z,67.70
2022-08-09T22:02:58.945Z,67.10
2022-08-09T22:05:36.184Z,67.90
2022-08-09T22:08:13.715Z,67.70
2022-08-09T22:11:00.621Z,67.20
2022-08-09T22:13:31.567Z,67.10
2022-08-09T22:16:01.382Z,67.50
2022-08-09T22:18:33.082Z,67.80
2022-08-09T22:21:00.825Z,67.50
2022-08-09T22:23:35.062Z,66.80
2022-08-09T22:26:08.197Z,68.10
2022-08-09T22:28:43.616Z,67.80
2022-08-09T22:31:20.303Z,67.90
2022-08-09T22:33:55.127Z,67.90
2022-08-09T22:36:22.603Z,68.20
2022-08-09T22:38:49.825Z,68.50
2022-08-09T22:41:16.870Z,68.80
2022-08-09T22:44:02.654Z,68.90
2022-08-09T22:48:13.474Z,68.80
2022-08-09T22:49:18.395Z,70.60
2022-08-09T22:51:49.785Z,69.20
2022-08-09T22:54:27.072Z,69.70
2022-08-09T22:56:57.119Z,69.90
2022-08-09T22:59:55.905Z,70.00
2022-08-09T23:02:15.606Z,69.60
2022-08-09T23:04:54.071Z,68.90
2022-08-09T23:08:22.565Z,69.60
2022-08-09T23:10:27.906Z,69.20
2022-08-09T23:12:54.827Z,68.70
2022-08-09T23:15:21.796Z,69.60
2022-08-09T23:17:48.506Z,69.30
2022-08-09T23:20:15.688Z,69.00
2022-08-09T23:22:42.418Z,69.50
2022-08-09T23:25:11.029Z,69.60
2022-08-09T23:27:57.475Z,69.90
2022-08-09T23:30:25.555Z,70.30
2022-08-09T23:32:55.202Z,70.40
2022-08-09T23:35:22.256Z,69.80
2022-08-09T23:37:49.012Z,71.40
2022-08-09T23:40:17.396Z,70.90
2022-08-09T23:42:44.344Z,71.40
2022-08-09T23:45:11.218Z,71.00
2022-08-09T23:47:58.046Z,71.50
2022-08-09T23:50:25.241Z,72.90
2022-08-09T23:52:52.100Z,73.00
2022-08-09T23:55:19.349Z,72.70
2022-08-09T23:58:07.213Z,73.60
